In Rescue
 
Open Full Screen Window  High Contrast Mode
Wind Gusting 18 knots
10
March 01, 2024 4:20 PM EST
Weather Information
Wind Direction
  180 °
Wind Speed
  10 kt (12 mph)
Wind Gust
  18 kt (21 mph)
Altimeter
30.16 in
Visibility
10 SM
Temperature
07° C
45° F
Dewpoint
-05° C
23° F
Humidity
42%
Sky Condition
Clear
VFR

METAR KBAX 012120Z AUTO 18010G18KT 10SM CLR 07/M05 A3016 RMK AO2 T00741055

FAA Disclaimer: The data displayed is for advisory purposes only and is not to be used for flight planning or operations.